sensor_id;sensor_type;location;lat;lon;timestamp;pressure;altitude;pressure_sealevel;temperature;humidity
39301;BME280;25019;42.626;23.380;2022-12-16T00:01:37;94313.19;;;2.73;100.00
39301;BME280;25019;42.626;23.380;2022-12-16T00:04:03;94292.59;;;2.50;100.00
39301;BME280;25019;42.626;23.380;2022-12-16T00:06:31;94318.59;;;2.51;100.00
39301;BME280;25019;42.626;23.380;2022-12-16T00:08:57;94296.63;;;2.46;100.00
39301;BME280;25019;42.626;23.380;2022-12-16T00:11:23;94299.41;;;2.37;100.00
39301;BME280;25019;42.626;23.380;2022-12-16T00:13:49;94307.09;;;2.52;100.00
39301;BME280;25019;42.626;23.380;2022-12-16T00:16:16;94283.72;;;2.44;100.00
39301;BME280;25019;42.626;23.380;2022-12-16T00:18:43;94219.56;;;2.13;100.00
39301;BME280;25019;42.626;23.380;2022-12-16T00:21:08;94306.53;;;2.50;100.00
39301;BME280;25019;42.626;23.380;2022-12-16T00:23:35;94230.28;;;2.18;100.00
39301;BME280;25019;42.626;23.380;2022-12-16T00:26:01;94221.19;;;2.14;100.00
39301;BME280;25019;42.626;23.380;2022-12-16T00:28:27;94230.47;;;2.23;100.00
39301;BME280;25019;42.626;23.380;2022-12-16T00:30:54;94294.63;;;2.61;100.00
39301;BME280;25019;42.626;23.380;2022-12-16T00:33:21;94298.66;;;2.57;100.00
39301;BME280;25019;42.626;23.380;2022-12-16T00:35:48;94300.47;;;2.63;100.00
39301;BME280;25019;42.626;23.380;2022-12-16T00:38:14;94229.63;;;2.09;100.00
39301;BME280;25019;42.626;23.380;2022-12-16T00:40:40;94307.53;;;2.69;100.00
39301;BME280;25019;42.626;23.380;2022-12-16T00:43:06;94217.75;;;2.14;100.00
39301;BME280;25019;42.626;23.380;2022-12-16T00:45:32;94288.56;;;2.67;100.00
39301;BME280;25019;42.626;23.380;2022-12-16T00:47:57;94295.44;;;2.62;100.00
39301;BME280;25019;42.626;23.380;2022-12-16T00:50:23;94275.66;;;2.39;100.00
39301;BME280;25019;42.626;23.380;2022-12-16T00:52:49;94249.03;;;2.42;100.00
39301;BME280;25019;42.626;23.380;2022-12-16T00:55:15;94242.38;;;2.46;100.00
39301;BME280;25019;42.626;23.380;2022-12-16T00:57:41;94271.00;;;2.41;100.00
39301;BME280;25019;42.626;23.380;2022-12-16T01:00:08;94276.88;;;2.50;100.00
39301;BME280;25019;42.626;23.380;2022-12-16T01:02:46;94275.25;;;2.49;100.00
39301;BME280;25019;42.626;23.380;2022-12-16T01:05:15;94291.59;;;2.64;100.00
39301;BME280;25019;42.626;23.380;2022-12-16T01:07:41;94182.25;;;1.98;100.00
39301;BME280;25019;42.626;23.380;2022-12-16T01:10:07;94286.56;;;2.56;100.00
39301;BME280;25019;42.626;23.380;2022-12-16T01:12:34;94233.06;;;2.10;100.00
39301;BME280;25019;42.626;23.380;2022-12-16T01:15:00;94224.22;;;2.04;100.00
39301;BME280;25019;42.626;23.380;2022-12-16T01:17:26;94262.75;;;2.44;100.00
39301;BME280;25019;42.626;23.380;2022-12-16T01:19:52;94264.75;;;2.29;100.00
39301;BME280;25019;42.626;23.380;2022-12-16T01:22:19;94227.44;;;2.06;100.00
39301;BME280;25019;42.626;23.380;2022-12-16T01:24:46;94173.97;;;1.74;100.00
39301;BME280;25019;42.626;23.380;2022-12-16T01:27:12;94284.94;;;2.55;100.00
39301;BME280;25019;42.626;23.380;2022-12-16T01:29:38;94211.28;;;2.09;100.00
39301;BME280;25019;42.626;23.380;2022-12-16T01:32:04;94200.81;;;2.03;100.00
39301;BME280;25019;42.626;23.380;2022-12-16T01:34:31;94204.47;;;2.15;100.00
39301;BME280;25019;42.626;23.380;2022-12-16T01:36:56;94164.31;;;1.74;100.00
39301;BME280;25019;42.626;23.380;2022-12-16T01:39:23;94298.44;;;2.45;100.00
39301;BME280;25019;42.626;23.380;2022-12-16T01:41:49;94271.63;;;2.50;100.00
39301;BME280;25019;42.626;23.380;2022-12-16T01:44:19;94261.94;;;2.37;100.00
39301;BME280;25019;42.626;23.380;2022-12-16T01:46:49;94261.97;;;2.50;100.00
39301;BME280;25019;42.626;23.380;2022-12-16T01:49:26;94212.34;;;2.08;100.00
39301;BME280;25019;42.626;23.380;2022-12-16T01:51:57;94125.22;;;1.53;100.00
39301;BME280;25019;42.626;23.380;2022-12-16T01:54:30;94144.78;;;1.84;100.00
39301;BME280;25019;42.626;23.380;2022-12-16T01:57:02;94255.09;;;2.49;100.00
39301;BME280;25019;42.626;23.380;2022-12-16T01:59:29;94222.19;;;2.20;100.00
39301;BME280;25019;42.626;23.380;2022-12-16T02:01:56;94176.41;;;1.95;100.00
39301;BME280;25019;42.626;23.380;2022-12-16T02:04:22;94277.88;;;2.35;100.00
39301;BME280;25019;42.626;23.380;2022-12-16T02:06:48;94252.25;;;2.24;100.00
39301;BME280;25019;42.626;23.380;2022-12-16T02:09:14;94251.25;;;2.32;100.00
39301;BME280;25019;42.626;23.380;2022-12-16T02:14:28;94252.06;;;2.32;100.00
39301;BME280;25019;42.626;23.380;2022-12-16T02:17:04;94222.81;;;2.29;100.00
39301;BME280;25019;42.626;23.380;2022-12-16T02:22:57;94211.34;;;2.36;100.00
39301;BME280;25019;42.626;23.380;2022-12-16T02:30:55;94226.84;;;2.45;100.00
39301;BME280;25019;42.626;23.380;2022-12-16T02:36:27;94215.16;;;2.47;100.00
39301;BME280;25019;42.626;23.380;2022-12-16T02:39:04;94234.09;;;2.43;100.00
39301;BME280;25019;42.626;23.380;2022-12-16T02:41:42;94223.22;;;2.39;100.00
39301;BME280;25019;42.626;23.380;2022-12-16T02:44:09;94189.53;;;2.16;100.00
39301;BME280;25019;42.626;23.380;2022-12-16T02:46:41;94188.13;;;1.93;100.00
39301;BME280;25019;42.626;23.380;2022-12-16T02:51:37;94144.94;;;1.62;100.00
39301;BME280;25019;42.626;23.380;2022-12-16T02:54:04;94249.22;;;2.20;100.00
39301;BME280;25019;42.626;23.380;2022-12-16T03:02:08;94209.84;;;1.80;100.00
39301;BME280;25019;42.626;23.380;2022-12-16T03:04:48;94269.19;;;2.21;100.00
39301;BME280;25019;42.626;23.380;2022-12-16T03:07:17;94261.06;;;2.09;100.00
39301;BME280;25019;42.626;23.380;2022-12-16T03:09:46;94242.56;;;2.11;100.00
39301;BME280;25019;42.626;23.380;2022-12-16T03:12:15;94266.56;;;2.35;100.00
39301;BME280;25019;42.626;23.380;2022-12-16T03:14:44;94260.09;;;2.37;100.00
39301;BME280;25019;42.626;23.380;2022-12-16T03:17:12;94260.75;;;2.46;100.00
39301;BME280;25019;42.626;23.380;2022-12-16T03:19:39;94251.25;;;2.52;100.00
39301;BME280;25019;42.626;23.380;2022-12-16T03:22:12;94176.44;;;2.09;100.00
39301;BME280;25019;42.626;23.380;2022-12-16T03:24:40;94185.31;;;2.15;100.00
39301;BME280;25019;42.626;23.380;2022-12-16T03:27:40;94217.78;;;2.34;100.00
39301;BME280;25019;42.626;23.380;2022-12-16T03:30:14;94163.97;;;2.04;100.00
39301;BME280;25019;42.626;23.380;2022-12-16T03:32:47;94233.31;;;2.42;100.00
39301;BME280;25019;42.626;23.380;2022-12-16T03:35:15;94229.69;;;2.43;100.00
39301;BME280;25019;42.626;23.380;2022-12-16T03:37:45;94200.84;;;2.16;100.00
39301;BME280;25019;42.626;23.380;2022-12-16T03:40:14;94211.53;;;2.28;100.00
39301;BME280;25019;42.626;23.380;2022-12-16T03:42:41;94111.09;;;1.54;100.00
39301;BME280;25019;42.626;23.380;2022-12-16T03:45:13;94061.56;;;1.32;100.00
39301;BME280;25019;42.626;23.380;2022-12-16T03:47:41;94238.56;;;2.42;100.00
39301;BME280;25019;42.626;23.380;2022-12-16T03:50:07;94240.97;;;2.50;100.00
39301;BME280;25019;42.626;23.380;2022-12-16T03:52:33;94260.91;;;2.51;100.00
39301;BME280;25019;42.626;23.380;2022-12-16T03:54:59;94267.19;;;2.44;100.00
39301;BME280;25019;42.626;23.380;2022-12-16T03:57:25;94281.91;;;2.51;100.00
39301;BME280;25019;42.626;23.380;2022-12-16T03:59:51;94263.16;;;2.41;100.00
39301;BME280;25019;42.626;23.380;2022-12-16T04:02:17;94133.28;;;1.64;100.00
39301;BME280;25019;42.626;23.380;2022-12-16T04:04:42;94278.91;;;2.68;100.00
39301;BME280;25019;42.626;23.380;2022-12-16T04:07:08;94238.94;;;2.52;100.00
39301;BME280;25019;42.626;23.380;2022-12-16T04:09:47;94265.97;;;2.73;100.00
39301;BME280;25019;42.626;23.380;2022-12-16T04:12:13;94147.44;;;1.90;100.00
39301;BME280;25019;42.626;23.380;2022-12-16T04:15:03;94205.06;;;2.37;100.00
39301;BME280;25019;42.626;23.380;2022-12-16T04:17:47;94252.44;;;2.69;100.00
39301;BME280;25019;42.626;23.380;2022-12-16T04:20:35;94270.63;;;2.78;100.00
39301;BME280;25019;42.626;23.380;2022-12-16T04:23:22;94265.97;;;2.87;100.00
39301;BME280;25019;42.626;23.380;2022-12-16T04:26:07;94219.59;;;2.40;100.00
39301;BME280;25019;42.626;23.380;2022-12-16T04:28:33;94248.84;;;2.77;100.00
39301;BME280;25019;42.626;23.380;2022-12-16T04:30:59;94210.72;;;2.54;100.00
39301;BME280;25019;42.626;23.380;2022-12-16T04:33:24;94220.00;;;2.64;100.00
39301;BME280;25019;42.626;23.380;2022-12-16T04:36:08;94231.50;;;2.76;100.00
39301;BME280;25019;42.626;23.380;2022-12-16T04:38:53;94193.59;;;2.45;100.00
39301;BME280;25019;42.626;23.380;2022-12-16T04:41:37;94267.97;;;2.84;100.00
39301;BME280;25019;42.626;23.380;2022-12-16T04:44:21;94243.81;;;2.62;100.00
39301;BME280;25019;42.626;23.380;2022-12-16T04:47:06;94221.41;;;2.60;100.00
39301;BME280;25019;42.626;23.380;2022-12-16T04:49:50;94189.16;;;2.32;100.00
39301;BME280;25019;42.626;23.380;2022-12-16T04:52:34;94245.81;;;2.87;100.00
39301;BME280;25019;42.626;23.380;2022-12-16T04:55:18;94179.47;;;2.39;100.00
39301;BME280;25019;42.626;23.380;2022-12-16T04:58:04;94176.03;;;2.46;100.00
39301;BME280;25019;42.626;23.380;2022-12-16T05:00:48;94160.31;;;2.39;100.00
39301;BME280;25019;42.626;23.380;2022-12-16T05:03:33;94199.03;;;2.37;100.00
39301;BME280;25019;42.626;23.380;2022-12-16T05:06:17;94235.31;;;2.87;100.00
39301;BME280;25019;42.626;23.380;2022-12-16T05:09:03;94282.09;;;2.83;100.00
39301;BME280;25019;42.626;23.380;2022-12-16T05:11:47;94118.41;;;1.92;100.00
39301;BME280;25019;42.626;23.380;2022-12-16T05:14:32;94266.41;;;2.63;100.00
39301;BME280;25019;42.626;23.380;2022-12-16T05:17:17;94181.09;;;2.20;100.00
39301;BME280;25019;42.626;23.380;2022-12-16T05:20:02;94256.28;;;2.74;100.00
39301;BME280;25019;42.626;23.380;2022-12-16T05:22:46;94261.75;;;2.79;100.00
39301;BME280;25019;42.626;23.380;2022-12-16T05:25:31;94250.84;;;2.75;100.00
39301;BME280;25019;42.626;23.380;2022-12-16T05:28:15;94281.69;;;2.93;100.00
39301;BME280;25019;42.626;23.380;2022-12-16T05:31:00;94263.75;;;2.83;100.00
39301;BME280;25019;42.626;23.380;2022-12-16T05:33:44;94274.06;;;2.78;100.00
39301;BME280;25019;42.626;23.380;2022-12-16T05:36:29;94266.59;;;2.82;100.00
39301;BME280;25019;42.626;23.380;2022-12-16T05:39:13;94296.03;;;2.91;100.00
39301;BME280;25019;42.626;23.380;2022-12-16T05:41:57;94291.19;;;2.81;100.00
39301;BME280;25019;42.626;23.380;2022-12-16T05:44:41;94203.47;;;2.23;100.00
39301;BME280;25019;42.626;23.380;2022-12-16T05:47:26;94294.63;;;2.88;100.00
39301;BME280;25019;42.626;23.380;2022-12-16T05:50:10;94317.81;;;2.78;100.00
39301;BME280;25019;42.626;23.380;2022-12-16T05:53:06;94298.69;;;2.77;100.00
39301;BME280;25019;42.626;23.380;2022-12-16T05:55:50;94305.09;;;2.81;100.00
39301;BME280;25019;42.626;23.380;2022-12-16T05:58:35;94299.66;;;2.90;100.00
39301;BME280;25019;42.626;23.380;2022-12-16T06:01:19;94301.47;;;2.82;100.00
39301;BME280;25019;42.626;23.380;2022-12-16T06:04:04;94256.09;;;2.62;100.00
39301;BME280;25019;42.626;23.380;2022-12-16T06:06:48;94241.56;;;2.52;100.00
39301;BME280;25019;42.626;23.380;2022-12-16T06:09:32;94317.03;;;3.04;100.00
39301;BME280;25019;42.626;23.380;2022-12-16T06:12:16;94319.25;;;2.94;100.00
39301;BME280;25019;42.626;23.380;2022-12-16T06:15:01;94313.16;;;2.93;100.00
39301;BME280;25019;42.626;23.380;2022-12-16T06:17:49;94334.38;;;2.85;100.00
39301;BME280;25019;42.626;23.380;2022-12-16T06:20:34;94313.41;;;2.78;100.00
39301;BME280;25019;42.626;23.380;2022-12-16T06:23:18;94315.19;;;2.84;100.00
39301;BME280;25019;42.626;23.380;2022-12-16T06:26:03;94252.66;;;2.34;100.00
39301;BME280;25019;42.626;23.380;2022-12-16T06:28:48;94372.28;;;2.82;100.00
39301;BME280;25019;42.626;23.380;2022-12-16T06:31:32;94289.75;;;2.38;100.00
39301;BME280;25019;42.626;23.380;2022-12-16T06:34:16;94329.13;;;2.78;100.00
39301;BME280;25019;42.626;23.380;2022-12-16T06:37:00;94333.56;;;2.84;100.00
39301;BME280;25019;42.626;23.380;2022-12-16T06:39:45;94347.69;;;2.90;100.00
39301;BME280;25019;42.626;23.380;2022-12-16T06:42:29;94340.44;;;2.92;100.00
39301;BME280;25019;42.626;23.380;2022-12-16T06:45:12;94326.28;;;2.87;100.00
39301;BME280;25019;42.626;23.380;2022-12-16T06:47:57;94283.13;;;2.69;100.00
39301;BME280;25019;42.626;23.380;2022-12-16T06:50:41;94333.38;;;2.86;100.00
39301;BME280;25019;42.626;23.380;2022-12-16T06:53:25;94303.50;;;2.80;100.00
39301;BME280;25019;42.626;23.380;2022-12-16T06:56:10;94314.19;;;2.99;100.00
39301;BME280;25019;42.626;23.380;2022-12-16T06:58:54;94285.72;;;2.82;100.00
39301;BME280;25019;42.626;23.380;2022-12-16T07:01:38;94297.63;;;2.98;100.00
39301;BME280;25019;42.626;23.380;2022-12-16T07:04:22;94312.56;;;3.11;100.00
39301;BME280;25019;42.626;23.380;2022-12-16T07:07:07;94298.63;;;3.11;100.00
39301;BME280;25019;42.626;23.380;2022-12-16T07:10:08;94331.75;;;3.12;100.00
39301;BME280;25019;42.626;23.380;2022-12-16T07:12:56;94329.94;;;3.19;100.00
39301;BME280;25019;42.626;23.380;2022-12-16T07:15:40;94334.75;;;3.29;100.00
39301;BME280;25019;42.626;23.380;2022-12-16T07:18:24;94285.16;;;2.87;100.00
39301;BME280;25019;42.626;23.380;2022-12-16T07:21:09;94242.38;;;2.73;100.00
39301;BME280;25019;42.626;23.380;2022-12-16T07:23:53;94321.44;;;3.17;100.00
39301;BME280;25019;42.626;23.380;2022-12-16T07:26:37;94316.03;;;3.05;100.00
39301;BME280;25019;42.626;23.380;2022-12-16T07:29:21;94334.56;;;3.24;100.00
39301;BME280;25019;42.626;23.380;2022-12-16T07:32:06;94336.56;;;3.28;100.00
39301;BME280;25019;42.626;23.380;2022-12-16T07:34:50;94339.59;;;3.32;100.00
39301;BME280;25019;42.626;23.380;2022-12-16T07:37:36;94356.16;;;3.26;100.00
39301;BME280;25019;42.626;23.380;2022-12-16T07:40:20;94327.47;;;3.38;100.00
39301;BME280;25019;42.626;23.380;2022-12-16T07:43:04;94325.41;;;3.53;100.00
39301;BME280;25019;42.626;23.380;2022-12-16T07:45:48;94336.94;;;3.59;100.00
39301;BME280;25019;42.626;23.380;2022-12-16T07:48:32;94316.31;;;3.56;100.00
39301;BME280;25019;42.626;23.380;2022-12-16T07:51:16;94337.53;;;3.61;100.00
39301;BME280;25019;42.626;23.380;2022-12-16T07:54:01;94338.34;;;3.55;100.00
39301;BME280;25019;42.626;23.380;2022-12-16T07:56:45;94322.97;;;3.58;100.00
39301;BME280;25019;42.626;23.380;2022-12-16T07:59:29;94332.91;;;3.50;100.00
39301;BME280;25019;42.626;23.380;2022-12-16T08:02:13;94348.59;;;3.63;100.00
39301;BME280;25019;42.626;23.380;2022-12-16T08:04:57;94339.53;;;3.66;100.00
39301;BME280;25019;42.626;23.380;2022-12-16T08:07:41;94339.09;;;3.75;100.00
39301;BME280;25019;42.626;23.380;2022-12-16T08:10:26;94367.13;;;4.02;100.00
39301;BME280;25019;42.626;23.380;2022-12-16T08:13:11;94352.13;;;4.02;100.00
39301;BME280;25019;42.626;23.380;2022-12-16T08:15:55;94348.94;;;3.94;100.00
39301;BME280;25019;42.626;23.380;2022-12-16T08:18:39;94376.34;;;4.18;100.00
39301;BME280;25019;42.626;23.380;2022-12-16T08:21:24;94333.31;;;4.05;100.00
39301;BME280;25019;42.626;23.380;2022-12-16T08:24:08;94361.34;;;4.25;100.00
39301;BME280;25019;42.626;23.380;2022-12-16T08:26:52;94335.88;;;4.26;100.00
39301;BME280;25019;42.626;23.380;2022-12-16T08:29:36;94367.91;;;4.48;100.00
39301;BME280;25019;42.626;23.380;2022-12-16T08:32:20;94354.03;;;4.66;100.00
39301;BME280;25019;42.626;23.380;2022-12-16T08:35:05;94307.50;;;4.34;100.00
39301;BME280;25019;42.626;23.380;2022-12-16T08:37:53;94356.41;;;4.74;100.00
39301;BME280;25019;42.626;23.380;2022-12-16T08:40:37;94350.09;;;4.82;100.00
39301;BME280;25019;42.626;23.380;2022-12-16T08:43:22;94335.19;;;4.69;100.00
39301;BME280;25019;42.626;23.380;2022-12-16T08:46:06;94333.63;;;4.93;100.00
39301;BME280;25019;42.626;23.380;2022-12-16T08:48:50;94315.00;;;4.63;100.00
39301;BME280;25019;42.626;23.380;2022-12-16T08:51:34;94341.19;;;4.83;100.00
39301;BME280;25019;42.626;23.380;2022-12-16T08:54:19;94332.56;;;4.69;100.00
39301;BME280;25019;42.626;23.380;2022-12-16T08:57:03;94322.59;;;4.78;100.00
39301;BME280;25019;42.626;23.380;2022-12-16T08:59:47;94302.72;;;4.82;100.00
39301;BME280;25019;42.626;23.380;2022-12-16T09:02:31;94328.53;;;4.99;100.00
39301;BME280;25019;42.626;23.380;2022-12-16T09:05:17;94307.56;;;4.85;100.00
39301;BME280;25019;42.626;23.380;2022-12-16T09:08:02;94295.34;;;4.98;100.00
39301;BME280;25019;42.626;23.380;2022-12-16T09:10:46;94293.22;;;5.06;100.00
39301;BME280;25019;42.626;23.380;2022-12-16T09:13:31;94282.19;;;5.16;100.00
39301;BME280;25019;42.626;23.380;2022-12-16T09:16:15;94293.25;;;5.25;100.00
39301;BME280;25019;42.626;23.380;2022-12-16T09:18:59;94263.84;;;5.28;100.00
39301;BME280;25019;42.626;23.380;2022-12-16T09:21:44;94202.91;;;4.87;100.00
39301;BME280;25019;42.626;23.380;2022-12-16T09:24:28;94261.59;;;5.50;100.00
39301;BME280;25019;42.626;23.380;2022-12-16T09:27:12;94285.81;;;5.59;100.00
39301;BME280;25019;42.626;23.380;2022-12-16T09:29:56;94264.47;;;5.67;100.00
39301;BME280;25019;42.626;23.380;2022-12-16T09:32:42;94269.41;;;5.76;100.00
39301;BME280;25019;42.626;23.380;2022-12-16T09:35:27;94191.13;;;5.46;100.00
39301;BME280;25019;42.626;23.380;2022-12-16T09:38:11;94251.91;;;6.00;100.00
39301;BME280;25019;42.626;23.380;2022-12-16T09:40:55;94240.25;;;6.08;100.00
39301;BME280;25019;42.626;23.380;2022-12-16T09:52:15;94247.38;;;6.50;100.00
39301;BME280;25019;42.626;23.380;2022-12-16T09:55:03;94234.88;;;6.57;100.00
39301;BME280;25019;42.626;23.380;2022-12-16T09:57:48;94170.81;;;6.26;100.00
39301;BME280;25019;42.626;23.380;2022-12-16T10:00:32;94243.28;;;6.78;100.00
39301;BME280;25019;42.626;23.380;2022-12-16T10:03:37;94223.75;;;6.67;100.00
39301;BME280;25019;42.626;23.380;2022-12-16T10:06:41;94187.84;;;6.54;100.00
39301;BME280;25019;42.626;23.380;2022-12-16T10:21:21;94239.50;;;7.45;100.00
39301;BME280;25019;42.626;23.380;2022-12-16T10:24:09;94243.47;;;7.59;100.00
39301;BME280;25019;42.626;23.380;2022-12-16T10:27:21;94241.38;;;7.73;100.00
39301;BME280;25019;42.626;23.380;2022-12-16T10:30:12;94236.31;;;7.84;100.00
39301;BME280;25019;42.626;23.380;2022-12-16T10:32:57;94221.78;;;7.86;100.00
39301;BME280;25019;42.626;23.380;2022-12-16T10:35:48;94214.38;;;8.00;100.00
39301;BME280;25019;42.626;23.380;2022-12-16T10:38:41;94204.16;;;8.04;100.00
39301;BME280;25019;42.626;23.380;2022-12-16T10:41:31;94144.03;;;7.70;100.00
39301;BME280;25019;42.626;23.380;2022-12-16T10:44:35;94210.69;;;8.30;100.00
39301;BME280;25019;42.626;23.380;2022-12-16T10:47:21;94211.19;;;8.44;100.00
39301;BME280;25019;42.626;23.380;2022-12-16T10:50:05;94204.66;;;8.64;100.00
39301;BME280;25019;42.626;23.380;2022-12-16T10:52:56;94192.88;;;8.72;100.00
39301;BME280;25019;42.626;23.380;2022-12-16T10:58:55;94195.59;;;8.77;100.00
39301;BME280;25019;42.626;23.380;2022-12-16T11:01:41;94196.22;;;8.84;100.00
39301;BME280;25019;42.626;23.380;2022-12-16T11:04:34;94136.63;;;8.64;100.00
39301;BME280;25019;42.626;23.380;2022-12-16T11:07:58;94196.09;;;9.13;100.00
39301;BME280;25019;42.626;23.380;2022-12-16T11:10:43;94195.50;;;9.28;100.00
39301;BME280;25019;42.626;23.380;2022-12-16T11:16:24;94204.41;;;9.61;100.00
39301;BME280;25019;42.626;23.380;2022-12-16T11:19:26;94185.22;;;9.76;100.00
39301;BME280;25019;42.626;23.380;2022-12-16T11:22:19;94200.50;;;9.91;100.00
39301;BME280;25019;42.626;23.380;2022-12-16T11:27:48;94207.91;;;10.11;100.00
39301;BME280;25019;42.626;23.380;2022-12-16T11:30:32;94186.91;;;10.10;100.00
39301;BME280;25019;42.626;23.380;2022-12-16T11:33:22;94192.38;;;10.25;100.00
39301;BME280;25019;42.626;23.380;2022-12-16T11:36:14;94202.28;;;10.35;100.00
39301;BME280;25019;42.626;23.380;2022-12-16T11:39:00;94177.28;;;10.31;100.00
39301;BME280;25019;42.626;23.380;2022-12-16T11:41:49;94194.47;;;10.45;100.00
39301;BME280;25019;42.626;23.380;2022-12-16T11:44:39;94133.53;;;10.06;100.00
39301;BME280;25019;42.626;23.380;2022-12-16T11:48:04;94126.44;;;10.12;100.00
39301;BME280;25019;42.626;23.380;2022-12-16T11:50:55;94184.22;;;10.59;100.00
39301;BME280;25019;42.626;23.380;2022-12-16T11:56:31;94126.59;;;10.00;100.00
39301;BME280;25019;42.626;23.380;2022-12-16T11:59:41;94106.97;;;10.01;100.00
39301;BME280;25019;42.626;23.380;2022-12-16T12:02:43;94176.94;;;10.49;100.00
39301;BME280;25019;42.626;23.380;2022-12-16T12:05:41;94167.47;;;10.59;100.00
39301;BME280;25019;42.626;23.380;2022-12-16T12:08:40;94168.97;;;10.49;100.00
39301;BME280;25019;42.626;23.380;2022-12-16T12:11:34;94151.00;;;10.57;100.00
39301;BME280;25019;42.626;23.380;2022-12-16T12:27:06;94128.03;;;10.78;100.00
39301;BME280;25019;42.626;23.380;2022-12-16T12:30:05;94134.75;;;10.91;100.00
39301;BME280;25019;42.626;23.380;2022-12-16T12:36:18;94138.84;;;11.09;100.00
39301;BME280;25019;42.626;23.380;2022-12-16T12:42:11;94131.09;;;11.02;100.00
39301;BME280;25019;42.626;23.380;2022-12-16T12:48:34;94141.50;;;11.09;100.00
39301;BME280;25019;42.626;23.380;2022-12-16T12:51:32;94062.06;;;10.64;100.00
39301;BME280;25019;42.626;23.380;2022-12-16T12:54:33;94147.94;;;11.23;100.00
39301;BME280;25019;42.626;23.380;2022-12-16T12:57:23;94141.13;;;11.38;100.00
39301;BME280;25019;42.626;23.380;2022-12-16T13:00:18;94135.59;;;11.50;100.00
39301;BME280;25019;42.626;23.380;2022-12-16T13:03:37;94067.66;;;11.21;100.00
39301;BME280;25019;42.626;23.380;2022-12-16T13:06:23;94153.47;;;11.75;100.00
39301;BME280;25019;42.626;23.380;2022-12-16T13:12:32;94137.56;;;11.86;100.00
39301;BME280;25019;42.626;23.380;2022-12-16T13:15:37;94156.44;;;11.84;100.00
39301;BME280;25019;42.626;23.380;2022-12-16T13:27:20;94149.75;;;11.66;100.00
39301;BME280;25019;42.626;23.380;2022-12-16T13:32:57;94057.75;;;11.01;100.00
39301;BME280;25019;42.626;23.380;2022-12-16T13:38:45;94132.41;;;11.53;100.00
39301;BME280;25019;42.626;23.380;2022-12-16T13:50:43;94112.69;;;11.44;100.00
39301;BME280;25019;42.626;23.380;2022-12-16T13:53:31;94144.41;;;11.66;100.00
39301;BME280;25019;42.626;23.380;2022-12-16T13:56:24;94152.66;;;11.64;100.00
39301;BME280;25019;42.626;23.380;2022-12-16T13:59:16;94157.41;;;11.62;100.00
39301;BME280;25019;42.626;23.380;2022-12-16T14:02:31;94160.34;;;11.61;100.00
39301;BME280;25019;42.626;23.380;2022-12-16T14:05:21;94170.44;;;11.59;100.00
39301;BME280;25019;42.626;23.380;2022-12-16T14:08:13;94161.63;;;11.48;100.00
39301;BME280;25019;42.626;23.380;2022-12-16T14:11:04;94176.25;;;11.50;100.00
39301;BME280;25019;42.626;23.380;2022-12-16T14:14:13;94167.97;;;11.42;100.00
39301;BME280;25019;42.626;23.380;2022-12-16T14:17:03;94191.09;;;11.36;100.00
39301;BME280;25019;42.626;23.380;2022-12-16T14:22:59;94188.13;;;11.32;100.00
39301;BME280;25019;42.626;23.380;2022-12-16T14:25:46;94193.44;;;11.27;100.00
39301;BME280;25019;42.626;23.380;2022-12-16T14:28:39;94191.00;;;11.20;100.00
39301;BME280;25019;42.626;23.380;2022-12-16T14:31:29;94113.03;;;10.56;100.00
39301;BME280;25019;42.626;23.380;2022-12-16T14:34:16;94201.34;;;11.17;100.00
39301;BME280;25019;42.626;23.380;2022-12-16T14:37:23;94204.25;;;11.15;100.00
39301;BME280;25019;42.626;23.380;2022-12-16T14:43:22;94203.13;;;11.06;100.00
39301;BME280;25019;42.626;23.380;2022-12-16T14:46:29;94205.75;;;11.01;100.00
39301;BME280;25019;42.626;23.380;2022-12-16T14:49:23;94199.34;;;10.97;100.00
39301;BME280;25019;42.626;23.380;2022-12-16T14:52:18;94192.66;;;10.89;100.00
39301;BME280;25019;42.626;23.380;2022-12-16T14:55:15;94208.84;;;10.87;100.00
39301;BME280;25019;42.626;23.380;2022-12-16T14:58:05;94201.09;;;10.81;100.00
39301;BME280;25019;42.626;23.380;2022-12-16T15:00:51;94190.69;;;10.74;100.00
39301;BME280;25019;42.626;23.380;2022-12-16T15:03:39;94082.47;;;9.88;100.00
39301;BME280;25019;42.626;23.380;2022-12-16T15:06:36;94182.00;;;10.51;100.00
39301;BME280;25019;42.626;23.380;2022-12-16T15:12:08;94096.94;;;9.81;100.00
39301;BME280;25019;42.626;23.380;2022-12-16T15:14:53;94196.03;;;10.46;100.00
39301;BME280;25019;42.626;23.380;2022-12-16T15:17:55;94199.72;;;10.40;100.00
39301;BME280;25019;42.626;23.380;2022-12-16T15:20:58;94196.47;;;10.38;100.00
39301;BME280;25019;42.626;23.380;2022-12-16T15:23:43;94195.09;;;10.35;100.00
39301;BME280;25019;42.626;23.380;2022-12-16T15:26:32;94203.06;;;10.30;100.00
39301;BME280;25019;42.626;23.380;2022-12-16T15:29:37;94187.63;;;10.27;100.00
39301;BME280;25019;42.626;23.380;2022-12-16T15:35:59;94121.84;;;9.74;100.00
39301;BME280;25019;42.626;23.380;2022-12-16T15:41:25;94205.19;;;10.33;100.00
39301;BME280;25019;42.626;23.380;2022-12-16T15:44:25;94205.69;;;10.30;100.00
39301;BME280;25019;42.626;23.380;2022-12-16T15:47:24;94195.09;;;10.30;100.00
39301;BME280;25019;42.626;23.380;2022-12-16T15:50:14;94210.47;;;10.28;100.00
39301;BME280;25019;42.626;23.380;2022-12-16T15:56:19;94137.13;;;9.89;100.00
39301;BME280;25019;42.626;23.380;2022-12-16T15:59:34;94216.91;;;10.38;100.00
39301;BME280;25019;42.626;23.380;2022-12-16T16:02:21;94175.78;;;10.13;100.00
39301;BME280;25019;42.626;23.380;2022-12-16T16:05:32;94216.69;;;10.39;100.00
39301;BME280;25019;42.626;23.380;2022-12-16T16:08:17;94223.59;;;10.40;100.00
39301;BME280;25019;42.626;23.380;2022-12-16T16:11:01;94198.25;;;10.32;100.00